PWSweather.com
Personal Weather Stations
Station Observations

SkegnessGB

Lat: 53.147585, Lon: 0.345774

Elevation: 18

Station Type: Fine Offset WH3080

http://www.skegnessweather.info/

High Low Average
Temperature 44.2°F6.8°C 34.0°F1.1°C 38.0°F3.3°C
Dew Point 35.2°F1.8°C 28.5°F-1.9°C 31.9°F-0.1°C
Winds 9.1 mph 14.6 kmh Calm Calm 4.0 mph SW6.4 kmh SW
Wind Gusts 11.8 mph19.0 kmh 0.7 mph1.1 kmh 6.0 mph9.7 kmh
Humidity 84% 67% 79%
Pressure 30.54 in1034.2 mb 29.98 in1015.2 mb -
Precipitation 0.01 in0.3 mm - -
Hour Temp Dew Point Humidity Winds Wind Gusts Pressure Precip Precip Rate Daily Precip Total
12:00 AM 38.3°F3.5°C 33.3°F0.7°C 82% 4.9 mph SW7.9 kmh SW 6.6 mph10.6 kmh 29.98 in1015.2 mb 0.00 in0.0 mm 0.00 in0.0 mm 0.00 in0.0 mm
12:10 AM 38.3°F3.5°C 33.3°F0.7°C 82% 4.9 mph SW7.9 kmh SW 5.9 mph9.5 kmh 29.98 in1015.2 mb 0.00 in0.0 mm 0.00 in0.0 mm 0.00 in0.0 mm
12:20 AM 38.3°F3.5°C 33.3°F0.7°C 82% 4.9 mph WSW7.9 kmh WSW 5.9 mph9.5 kmh 29.99 in1015.6 mb 0.00 in0.0 mm 0.00 in0.0 mm 0.00 in0.0 mm
12:30 AM 38.3°F3.5°C 33.3°F0.7°C 82% 4.6 mph SSW7.4 kmh SSW 6.6 mph10.6 kmh 29.99 in1015.6 mb 0.00 in0.0 mm 0.00 in0.0 mm 0.00 in0.0 mm
12:40 AM 38.5°F3.6°C 33.5°F0.8°C 82% 4.8 mph S7.7 kmh S 6.6 mph10.6 kmh 30.00 in1015.9 mb 0.00 in0.0 mm 0.00 in0.0 mm 0.00 in0.0 mm
12:50 AM 38.3°F3.5°C 33.3°F0.7°C 82% 4.8 mph SW7.7 kmh SW 7.6 mph12.2 kmh 30.01 in1016.3 mb 0.00 in0.0 mm 0.00 in0.0 mm 0.00 in0.0 mm
01:00 AM 38.3°F3.5°C 33.3°F0.7°C 82% 6.8 mph SSW10.9 kmh SSW 11.8 mph19.0 kmh 30.01 in1016.3 mb 0.00 in0.0 mm 0.00 in0.0 mm 0.00 in0.0 mm
01:10 AM 38.3°F3.5°C 33.3°F0.7°C 82% 9.1 mph SW14.6 kmh SW 8.4 mph13.5 kmh 30.01 in1016.3 mb 0.00 in0.0 mm 0.00 in0.0 mm 0.00 in0.0 mm
01:20 AM 38.1°F3.4°C 33.1°F0.6°C 82% 7.6 mph SW12.2 kmh SW 8.4 mph13.5 kmh 30.01 in1016.3 mb 0.00 in0.0 mm 0.00 in0.0 mm 0.00 in0.0 mm
01:30 AM 37.9°F3.3°C 32.9°F0.5°C 82% 7.2 mph WSW11.6 kmh WSW 9.1 mph14.6 kmh 30.01 in1016.3 mb 0.00 in0.0 mm 0.00 in0.0 mm 0.00 in0.0 mm
01:40 AM 37.9°F3.3°C 33.2°F0.7°C 83% 7.7 mph W12.4 kmh W 9.1 mph14.6 kmh 30.02 in1016.6 mb 0.00 in0.0 mm 0.00 in0.0 mm 0.00 in0.0 mm
01:50 AM 37.9°F3.3°C 33.2°F0.7°C 83% 7.6 mph SSW12.2 kmh SSW 8.4 mph13.5 kmh 30.02 in1016.6 mb 0.00 in0.0 mm 0.00 in0.0 mm 0.00 in0.0 mm
02:00 AM 37.8°F3.2°C 33.1°F0.6°C 83% 7.7 mph S12.4 kmh S 10.1 mph16.3 kmh 30.03 in1016.9 mb 0.00 in0.0 mm 0.00 in0.0 mm 0.00 in0.0 mm
02:10 AM 37.6°F3.1°C 32.9°F0.5°C 83% 6.5 mph SW10.5 kmh SW 6.6 mph10.6 kmh 30.03 in1016.9 mb 0.00 in0.0 mm 0.00 in0.0 mm 0.00 in0.0 mm
02:20 AM 37.4°F3.0°C 32.7°F0.4°C 83% 4.5 mph SW7.2 kmh SW 5.9 mph9.5 kmh 30.04 in1017.3 mb 0.00 in0.0 mm 0.00 in0.0 mm 0.00 in0.0 mm
02:30 AM 37.4°F3.0°C 32.7°F0.4°C 83% 5.7 mph SW9.2 kmh SW 6.6 mph10.6 kmh 30.03 in1016.9 mb 0.00 in0.0 mm 0.00 in0.0 mm 0.00 in0.0 mm
02:40 AM 37.0°F2.8°C 32.4°F0.2°C 83% 4.7 mph NW7.6 kmh NW 6.6 mph10.6 kmh 30.04 in1017.3 mb 0.00 in0.0 mm 0.00 in0.0 mm 0.00 in0.0 mm
02:50 AM 36.7°F2.6°C 32.0°F0.0°C 83% 4.8 mph SSW7.7 kmh SSW 6.6 mph10.6 kmh 30.04 in1017.3 mb 0.00 in0.0 mm 0.00 in0.0 mm 0.00 in0.0 mm
03:00 AM 36.9°F2.7°C 32.2°F0.1°C 83% 7.6 mph W12.2 kmh W 10.1 mph16.3 kmh 30.04 in1017.3 mb 0.00 in0.0 mm 0.00 in0.0 mm 0.00 in0.0 mm
03:10 AM 36.9°F2.7°C 32.2°F0.1°C 83% 7.9 mph WSW12.7 kmh WSW 9.1 mph14.6 kmh 30.04 in1017.3 mb 0.00 in0.0 mm 0.00 in0.0 mm 0.00 in0.0 mm
03:20 AM 36.9°F2.7°C 32.2°F0.1°C 83% 7.3 mph WSW11.7 kmh WSW 9.1 mph14.6 kmh 30.05 in1017.6 mb 0.00 in0.0 mm 0.00 in0.0 mm 0.00 in0.0 mm
03:30 AM 36.7°F2.6°C 32.0°F0.0°C 83% 7.0 mph WSW11.3 kmh WSW 7.6 mph12.2 kmh 30.05 in1017.6 mb 0.00 in0.0 mm 0.00 in0.0 mm 0.00 in0.0 mm
03:40 AM 36.3°F2.4°C 31.7°F-0.2°C 83% 4.3 mph W6.9 kmh W 4.9 mph7.9 kmh 30.05 in1017.6 mb 0.00 in0.0 mm 0.00 in0.0 mm 0.00 in0.0 mm
03:50 AM 36.1°F2.3°C 31.5°F-0.3°C 83% 5.4 mph SW8.7 kmh SW 6.6 mph10.6 kmh 30.05 in1017.6 mb 0.00 in0.0 mm 0.00 in0.0 mm 0.00 in0.0 mm
04:00 AM 36.1°F2.3°C 31.5°F-0.3°C 83% 6.2 mph WSW10.0 kmh WSW 8.4 mph13.5 kmh 30.05 in1017.6 mb 0.00 in0.0 mm 0.00 in0.0 mm 0.00 in0.0 mm
04:10 AM 36.1°F2.3°C 31.5°F-0.3°C 83% 8.2 mph SW13.2 kmh SW 9.1 mph14.6 kmh 30.06 in1017.9 mb 0.00 in0.0 mm 0.00 in0.0 mm 0.00 in0.0 mm
04:20 AM 36.3°F2.4°C 31.7°F-0.2°C 83% 7.1 mph WSW11.4 kmh WSW 9.1 mph14.6 kmh 30.06 in1017.9 mb 0.00 in0.0 mm 0.00 in0.0 mm 0.00 in0.0 mm
04:30 AM 36.3°F2.4°C 31.7°F-0.2°C 83% 6.6 mph SW10.6 kmh SW 9.1 mph14.6 kmh 30.06 in1017.9 mb 0.00 in0.0 mm 0.00 in0.0 mm 0.00 in0.0 mm
04:40 AM 36.3°F2.4°C 31.7°F-0.2°C 83% 6.0 mph SW9.7 kmh SW 5.9 mph9.5 kmh 30.06 in1017.9 mb 0.00 in0.0 mm 0.00 in0.0 mm 0.00 in0.0 mm
04:50 AM 36.1°F2.3°C 31.5°F-0.3°C 83% 5.6 mph S9.0 kmh S 7.6 mph12.2 kmh 30.07 in1018.3 mb 0.00 in0.0 mm 0.00 in0.0 mm 0.00 in0.0 mm
05:00 AM 36.0°F2.2°C 31.3°F-0.4°C 83% 5.7 mph SW9.2 kmh SW 6.6 mph10.6 kmh 30.07 in1018.3 mb 0.00 in0.0 mm 0.00 in0.0 mm 0.00 in0.0 mm
05:10 AM 35.6°F2.0°C 30.9°F-0.6°C 83% 5.4 mph WSW8.7 kmh WSW 4.2 mph6.8 kmh 30.08 in1018.6 mb 0.00 in0.0 mm 0.00 in0.0 mm 0.00 in0.0 mm
05:20 AM 35.4°F1.9°C 30.8°F-0.7°C 83% 5.5 mph WSW8.9 kmh WSW 4.9 mph7.9 kmh 30.09 in1019.0 mb 0.00 in0.0 mm 0.00 in0.0 mm 0.00 in0.0 mm
05:30 AM 35.1°F1.7°C 30.4°F-0.9°C 83% 5.2 mph SSW8.4 kmh SSW 4.9 mph7.9 kmh 30.08 in1018.6 mb 0.00 in0.0 mm 0.00 in0.0 mm 0.00 in0.0 mm
05:40 AM 34.9°F1.6°C 30.2°F-1.0°C 83% 4.5 mph SW7.2 kmh SW 4.9 mph7.9 kmh 30.09 in1019.0 mb 0.00 in0.0 mm 0.00 in0.0 mm 0.00 in0.0 mm
05:50 AM 34.7°F1.5°C 30.1°F-1.1°C 83% 5.9 mph SW9.5 kmh SW 5.9 mph9.5 kmh 30.09 in1019.0 mb 0.00 in0.0 mm 0.00 in0.0 mm 0.00 in0.0 mm
06:00 AM 34.5°F1.4°C 29.9°F-1.2°C 83% 5.8 mph SW9.3 kmh SW 6.6 mph10.6 kmh 30.10 in1019.3 mb 0.00 in0.0 mm 0.00 in0.0 mm 0.00 in0.0 mm
06:10 AM 34.5°F1.4°C 29.9°F-1.2°C 83% 5.1 mph SW8.2 kmh SW 8.4 mph13.5 kmh 30.10 in1019.3 mb 0.00 in0.0 mm 0.00 in0.0 mm 0.00 in0.0 mm
06:20 AM 34.3°F1.3°C 29.7°F-1.3°C 83% 5.1 mph SSW8.2 kmh SSW 4.9 mph7.9 kmh 30.11 in1019.6 mb 0.00 in0.0 mm 0.00 in0.0 mm 0.00 in0.0 mm
06:30 AM 34.3°F1.3°C 29.7°F-1.3°C 83% 5.7 mph SSW9.2 kmh SSW 6.6 mph10.6 kmh 30.11 in1019.6 mb 0.00 in0.0 mm 0.00 in0.0 mm 0.00 in0.0 mm
06:40 AM 34.3°F1.3°C 29.7°F-1.3°C 83% 5.7 mph WSW9.2 kmh WSW 6.6 mph10.6 kmh 30.11 in1019.6 mb 0.00 in0.0 mm 0.00 in0.0 mm 0.00 in0.0 mm
06:50 AM 34.3°F1.3°C 29.7°F-1.3°C 83% 6.5 mph SW10.5 kmh SW 7.6 mph12.2 kmh 30.12 in1020.0 mb 0.00 in0.0 mm 0.00 in0.0 mm 0.00 in0.0 mm
07:00 AM 34.3°F1.3°C 29.7°F-1.3°C 83% 5.7 mph SW9.2 kmh SW 7.6 mph12.2 kmh 30.13 in1020.3 mb 0.00 in0.0 mm 0.00 in0.0 mm 0.00 in0.0 mm
07:10 AM 34.3°F1.3°C 29.7°F-1.3°C 83% 4.4 mph N7.1 kmh N 4.2 mph6.8 kmh 30.14 in1020.7 mb 0.00 in0.0 mm 0.00 in0.0 mm 0.00 in0.0 mm
07:20 AM 34.2°F1.2°C 29.5°F-1.4°C 83% 4.1 mph SW6.6 kmh SW 6.6 mph10.6 kmh 30.14 in1020.7 mb 0.00 in0.0 mm 0.00 in0.0 mm 0.00 in0.0 mm
07:30 AM 34.3°F1.3°C 29.7°F-1.3°C 83% 5.4 mph WSW8.7 kmh WSW 5.9 mph9.5 kmh 30.14 in1020.7 mb 0.00 in0.0 mm 0.00 in0.0 mm 0.00 in0.0 mm
07:40 AM 34.3°F1.3°C 30.0°F-1.1°C 84% 6.9 mph SSW11.1 kmh SSW 7.6 mph12.2 kmh 30.14 in1020.7 mb 0.00 in0.0 mm 0.00 in0.0 mm 0.00 in0.0 mm
07:50 AM 34.2°F1.2°C 29.8°F-1.2°C 84% 4.0 mph SW6.4 kmh SW 5.9 mph9.5 kmh 30.15 in1021.0 mb 0.00 in0.0 mm 0.00 in0.0 mm 0.00 in0.0 mm
08:00 AM 34.2°F1.2°C 29.8°F-1.2°C 84% 4.2 mph W6.8 kmh W 5.9 mph9.5 kmh 30.15 in1021.0 mb 0.00 in0.0 mm 0.00 in0.0 mm 0.00 in0.0 mm
08:10 AM 34.3°F1.3°C 30.0°F-1.1°C 84% 3.7 mph SW6.0 kmh SW 4.9 mph7.9 kmh 30.16 in1021.3 mb 0.00 in0.0 mm 0.00 in0.0 mm 0.00 in0.0 mm
08:20 AM 34.7°F1.5°C 30.4°F-0.9°C 84% 5.6 mph W9.0 kmh W 6.6 mph10.6 kmh 30.16 in1021.3 mb 0.00 in0.0 mm 0.00 in0.0 mm 0.00 in0.0 mm
08:30 AM 34.7°F1.5°C 30.4°F-0.9°C 84% 5.3 mph SW8.5 kmh SW 5.9 mph9.5 kmh 30.16 in1021.3 mb 0.00 in0.0 mm 0.00 in0.0 mm 0.00 in0.0 mm
08:40 AM 34.7°F1.5°C 30.4°F-0.9°C 84% 5.0 mph SW8.0 kmh SW 5.9 mph9.5 kmh 30.17 in1021.7 mb 0.00 in0.0 mm 0.00 in0.0 mm 0.00 in0.0 mm
08:50 AM 35.2°F1.8°C 30.9°F-0.6°C 84% 4.2 mph SSW6.8 kmh SSW 4.9 mph7.9 kmh 30.18 in1022.0 mb 0.00 in0.0 mm 0.00 in0.0 mm 0.00 in0.0 mm
09:00 AM 35.8°F2.1°C 31.4°F-0.3°C 84% 6.3 mph S10.1 kmh S 7.6 mph12.2 kmh 30.18 in1022.0 mb 0.00 in0.0 mm 0.00 in0.0 mm 0.00 in0.0 mm
09:10 AM 36.1°F2.3°C 31.8°F-0.1°C 84% 3.7 mph SSW6.0 kmh SSW 6.6 mph10.6 kmh 30.20 in1022.7 mb 0.00 in0.0 mm 0.00 in0.0 mm 0.00 in0.0 mm
09:20 AM 36.7°F2.6°C 32.3°F0.2°C 84% 5.8 mph S9.3 kmh S 10.1 mph16.3 kmh 30.20 in1022.7 mb 0.00 in0.0 mm 0.00 in0.0 mm 0.00 in0.0 mm
09:30 AM 37.2°F2.9°C 32.8°F0.4°C 84% 5.4 mph S8.7 kmh S 6.6 mph10.6 kmh 30.20 in1022.7 mb 0.00 in0.0 mm 0.00 in0.0 mm 0.00 in0.0 mm
09:40 AM 37.6°F3.1°C 33.2°F0.7°C 84% 4.0 mph SSW6.4 kmh SSW 4.2 mph6.8 kmh 30.20 in1022.7 mb 0.00 in0.0 mm 0.00 in0.0 mm 0.00 in0.0 mm
09:50 AM 38.1°F3.4°C 33.4°F0.8°C 83% 5.0 mph S8.0 kmh S 6.6 mph10.6 kmh 30.21 in1023.0 mb 0.00 in0.0 mm 0.00 in0.0 mm 0.00 in0.0 mm
10:00 AM 38.7°F3.7°C 33.9°F1.1°C 83% 5.3 mph SSW8.5 kmh SSW 5.9 mph9.5 kmh 30.21 in1023.0 mb 0.00 in0.0 mm 0.00 in0.0 mm 0.00 in0.0 mm
10:10 AM 39.4°F4.1°C 34.3°F1.3°C 82% 4.6 mph SW7.4 kmh SW 5.9 mph9.5 kmh 30.21 in1023.0 mb 0.00 in0.0 mm 0.00 in0.0 mm 0.00 in0.0 mm
10:20 AM 39.9°F4.4°C 34.6°F1.4°C 81% 5.4 mph SSW8.7 kmh SSW 8.4 mph13.5 kmh 30.21 in1023.0 mb 0.00 in0.0 mm 0.00 in0.0 mm 0.00 in0.0 mm
10:30 AM 40.3°F4.6°C 34.9°F1.6°C 81% 4.3 mph NW6.9 kmh NW 7.6 mph12.2 kmh 30.22 in1023.4 mb 0.00 in0.0 mm 0.00 in0.0 mm 0.00 in0.0 mm
10:40 AM 40.8°F4.9°C 35.1°F1.7°C 80% 5.5 mph WNW8.9 kmh WNW 8.4 mph13.5 kmh 30.22 in1023.4 mb 0.00 in0.0 mm 0.00 in0.0 mm 0.00 in0.0 mm
10:50 AM 41.2°F5.1°C 35.2°F1.8°C 79% 6.8 mph S10.9 kmh S 8.4 mph13.5 kmh 30.23 in1023.7 mb 0.00 in0.0 mm 0.00 in0.0 mm 0.00 in0.0 mm
11:00 AM 41.4°F5.2°C 34.7°F1.5°C 77% 6.7 mph SSW10.8 kmh SSW 9.1 mph14.6 kmh 30.23 in1023.7 mb 0.00 in0.0 mm 0.00 in0.0 mm 0.00 in0.0 mm
11:10 AM 41.5°F5.3°C 34.5°F1.4°C 76% 6.2 mph SW10.0 kmh SW 7.6 mph12.2 kmh 30.23 in1023.7 mb 0.00 in0.0 mm 0.00 in0.0 mm 0.00 in0.0 mm
11:20 AM 41.5°F5.3°C 34.2°F1.2°C 75% 6.8 mph SSW10.9 kmh SSW 10.1 mph16.3 kmh 30.23 in1023.7 mb 0.00 in0.0 mm 0.00 in0.0 mm 0.00 in0.0 mm
11:30 AM 41.7°F5.4°C 34.4°F1.3°C 75% 7.6 mph S12.2 kmh S 10.1 mph16.3 kmh 30.24 in1024.0 mb 0.00 in0.0 mm 0.00 in0.0 mm 0.00 in0.0 mm
11:40 AM 42.3°F5.7°C 34.9°F1.6°C 75% 5.2 mph SSW8.4 kmh SSW 7.6 mph12.2 kmh 30.25 in1024.4 mb 0.00 in0.0 mm 0.00 in0.0 mm 0.00 in0.0 mm
11:50 AM 42.4°F5.8°C 34.7°F1.5°C 74% 4.7 mph SE7.6 kmh SE 7.6 mph12.2 kmh 30.25 in1024.4 mb 0.01 in0.3 mm 0.06 in1.5 mm 0.01 in0.3 mm
12:00 PM 42.8°F6.0°C 35.1°F1.7°C 74% 6.0 mph SE9.7 kmh SE 7.6 mph12.2 kmh 30.25 in1024.4 mb 0.01 in0.3 mm 0.00 in0.0 mm 0.01 in0.3 mm
12:10 PM 43.2°F6.2°C 34.7°F1.5°C 72% 5.9 mph SW9.5 kmh SW 8.4 mph13.5 kmh 30.25 in1024.4 mb 0.01 in0.3 mm 0.00 in0.0 mm 0.01 in0.3 mm
12:20 PM 43.2°F6.2°C 34.7°F1.5°C 72% 5.8 mph SW9.3 kmh SW 7.6 mph12.2 kmh 30.25 in1024.4 mb 0.01 in0.3 mm 0.00 in0.0 mm 0.01 in0.3 mm
12:30 PM 43.3°F6.3°C 34.2°F1.2°C 70% 6.2 mph S10.0 kmh S 8.4 mph13.5 kmh 30.26 in1024.7 mb 0.01 in0.3 mm 0.00 in0.0 mm 0.01 in0.3 mm
12:40 PM 43.3°F6.3°C 34.6°F1.4°C 71% 5.9 mph N9.5 kmh N 6.6 mph10.6 kmh 30.26 in1024.7 mb 0.01 in0.3 mm 0.00 in0.0 mm 0.01 in0.3 mm
12:50 PM 43.3°F6.3°C 34.6°F1.4°C 71% 6.0 mph SSW9.7 kmh SSW 7.6 mph12.2 kmh 30.26 in1024.7 mb 0.00 in0.0 mm 0.00 in0.0 mm 0.01 in0.3 mm
01:00 PM 43.7°F6.5°C 34.9°F1.6°C 71% 5.0 mph NW8.0 kmh NW 9.1 mph14.6 kmh 30.26 in1024.7 mb 0.00 in0.0 mm 0.00 in0.0 mm 0.01 in0.3 mm
01:10 PM 43.7°F6.5°C 34.6°F1.4°C 70% 8.2 mph SW13.2 kmh SW 10.1 mph16.3 kmh 30.26 in1024.7 mb 0.00 in0.0 mm 0.00 in0.0 mm 0.01 in0.3 mm
01:20 PM 43.9°F6.6°C 34.7°F1.5°C 70% 4.5 mph W7.2 kmh W 7.6 mph12.2 kmh 30.27 in1025.1 mb 0.00 in0.0 mm 0.00 in0.0 mm 0.01 in0.3 mm
01:30 PM 44.1°F6.7°C 34.9°F1.6°C 70% 3.6 mph SW5.8 kmh SW 5.9 mph9.5 kmh 30.27 in1025.1 mb 0.00 in0.0 mm 0.00 in0.0 mm 0.01 in0.3 mm
01:40 PM 44.1°F6.7°C 34.5°F1.4°C 69% 5.3 mph SE8.5 kmh SE 7.6 mph12.2 kmh 30.27 in1025.1 mb 0.00 in0.0 mm 0.00 in0.0 mm 0.01 in0.3 mm
01:50 PM 44.1°F6.7°C 33.8°F1.0°C 67% 4.8 mph NW7.7 kmh NW 9.1 mph14.6 kmh 30.28 in1025.4 mb 0.00 in0.0 mm 0.00 in0.0 mm 0.01 in0.3 mm
02:00 PM 44.1°F6.7°C 33.8°F1.0°C 67% 5.6 mph SSW9.0 kmh SSW 5.9 mph9.5 kmh 30.28 in1025.4 mb 0.00 in0.0 mm 0.00 in0.0 mm 0.01 in0.3 mm
02:10 PM 44.2°F6.8°C 34.0°F1.1°C 67% 4.2 mph SSW6.8 kmh SSW 5.9 mph9.5 kmh 30.27 in1025.1 mb 0.00 in0.0 mm 0.00 in0.0 mm 0.01 in0.3 mm
02:20 PM 44.1°F6.7°C 33.8°F1.0°C 67% 4.1 mph SSW6.6 kmh SSW 4.9 mph7.9 kmh 30.29 in1025.7 mb 0.00 in0.0 mm 0.00 in0.0 mm 0.01 in0.3 mm
02:30 PM 44.1°F6.7°C 34.2°F1.2°C 68% 4.0 mph SW6.4 kmh SW 5.9 mph9.5 kmh 30.29 in1025.7 mb 0.00 in0.0 mm 0.00 in0.0 mm 0.01 in0.3 mm
02:40 PM 44.1°F6.7°C 34.2°F1.2°C 68% 3.5 mph SSE5.6 kmh SSE 4.2 mph6.8 kmh 30.30 in1026.1 mb 0.00 in0.0 mm 0.00 in0.0 mm 0.01 in0.3 mm
02:50 PM 43.9°F6.6°C 34.0°F1.1°C 68% 4.6 mph WSW7.4 kmh WSW 6.6 mph10.6 kmh 30.30 in1026.1 mb 0.00 in0.0 mm 0.00 in0.0 mm 0.01 in0.3 mm
03:00 PM 43.7°F6.5°C 33.8°F1.0°C 68% 4.0 mph SSW6.4 kmh SSW 4.9 mph7.9 kmh 30.30 in1026.1 mb 0.00 in0.0 mm 0.00 in0.0 mm 0.01 in0.3 mm
03:10 PM 43.5°F6.4°C 34.0°F1.1°C 69% 3.0 mph SE4.8 kmh SE 3.4 mph5.5 kmh 30.30 in1026.1 mb 0.00 in0.0 mm 0.00 in0.0 mm 0.01 in0.3 mm
03:20 PM 43.5°F6.4°C 34.4°F1.3°C 70% 3.0 mph SW4.8 kmh SW 4.9 mph7.9 kmh 30.30 in1026.1 mb 0.00 in0.0 mm 0.00 in0.0 mm 0.01 in0.3 mm
03:30 PM 43.3°F6.3°C 34.2°F1.2°C 70% 3.2 mph W5.1 kmh W 5.9 mph9.5 kmh 30.31 in1026.4 mb 0.00 in0.0 mm 0.00 in0.0 mm 0.01 in0.3 mm
03:40 PM 43.0°F6.1°C 33.9°F1.1°C 70% 3.1 mph SW5.0 kmh SW 4.2 mph6.8 kmh 30.32 in1026.8 mb 0.00 in0.0 mm 0.00 in0.0 mm 0.01 in0.3 mm
03:50 PM 42.6°F5.9°C 33.5°F0.8°C 70% 2.6 mph SSW4.2 kmh SSW 4.2 mph6.8 kmh 30.32 in1026.8 mb 0.00 in0.0 mm 0.00 in0.0 mm 0.01 in0.3 mm
04:00 PM 42.3°F5.7°C 33.2°F0.7°C 70% 2.9 mph S4.7 kmh S 3.4 mph5.5 kmh 30.32 in1026.8 mb 0.00 in0.0 mm 0.00 in0.0 mm 0.01 in0.3 mm
04:10 PM 41.7°F5.4°C 33.0°F0.6°C 71% 1.8 mph SW2.9 kmh SW 3.4 mph5.5 kmh 30.33 in1027.1 mb 0.00 in0.0 mm 0.00 in0.0 mm 0.01 in0.3 mm
04:20 PM 41.4°F5.2°C 32.7°F0.4°C 71% 1.6 mph S2.6 kmh S 3.4 mph5.5 kmh 30.33 in1027.1 mb 0.00 in0.0 mm 0.00 in0.0 mm 0.01 in0.3 mm
04:30 PM 41.0°F5.0°C 32.3°F0.2°C 71% 1.9 mph SSE3.1 kmh SSE 3.4 mph5.5 kmh 30.34 in1027.4 mb 0.00 in0.0 mm 0.00 in0.0 mm 0.01 in0.3 mm
04:40 PM 40.6°F4.8°C 32.3°F0.2°C 72% 1.9 mph W3.1 kmh W 3.4 mph5.5 kmh 30.34 in1027.4 mb 0.00 in0.0 mm 0.00 in0.0 mm 0.01 in0.3 mm
04:50 PM 40.1°F4.5°C 31.8°F-0.1°C 72% 3.4 mph SW5.5 kmh SW 4.2 mph6.8 kmh 30.35 in1027.8 mb 0.00 in0.0 mm 0.00 in0.0 mm 0.01 in0.3 mm
05:00 PM 39.7°F4.3°C 31.8°F-0.1°C 73% 3.7 mph W6.0 kmh W 3.4 mph5.5 kmh 30.35 in1027.8 mb 0.00 in0.0 mm 0.00 in0.0 mm 0.01 in0.3 mm
05:10 PM 39.4°F4.1°C 31.4°F-0.3°C 73% 4.2 mph NW6.8 kmh NW 3.4 mph5.5 kmh 30.36 in1028.1 mb 0.00 in0.0 mm 0.00 in0.0 mm 0.01 in0.3 mm
05:20 PM 39.0°F3.9°C 31.4°F-0.3°C 74% 2.0 mph SW3.2 kmh SW 3.4 mph5.5 kmh 30.36 in1028.1 mb 0.00 in0.0 mm 0.00 in0.0 mm 0.01 in0.3 mm
05:30 PM 38.7°F3.7°C 31.1°F-0.5°C 74% 1.6 mph W2.6 kmh W 3.4 mph5.5 kmh 30.37 in1028.4 mb 0.00 in0.0 mm 0.00 in0.0 mm 0.01 in0.3 mm
05:40 PM 38.3°F3.5°C 31.1°F-0.5°C 75% 1.4 mph SW2.3 kmh SW 2.5 mph4.0 kmh 30.37 in1028.4 mb 0.00 in0.0 mm 0.00 in0.0 mm 0.01 in0.3 mm
05:50 PM 37.9°F3.3°C 30.7°F-0.7°C 75% 0.9 mph S1.4 kmh S 1.7 mph2.7 kmh 30.38 in1028.8 mb 0.00 in0.0 mm 0.00 in0.0 mm 0.01 in0.3 mm
06:00 PM 37.9°F3.3°C 31.0°F-0.6°C 76% 1.0 mph SW1.6 kmh SW 2.5 mph4.0 kmh 30.38 in1028.8 mb 0.00 in0.0 mm 0.00 in0.0 mm 0.01 in0.3 mm
06:10 PM 37.9°F3.3°C 31.4°F-0.3°C 77% 1.3 mph SW2.1 kmh SW 3.4 mph5.5 kmh 30.38 in1028.8 mb 0.00 in0.0 mm 0.00 in0.0 mm 0.01 in0.3 mm
06:20 PM 37.8°F3.2°C 31.2°F-0.4°C 77% 1.6 mph SW2.6 kmh SW 2.5 mph4.0 kmh 30.39 in1029.1 mb 0.00 in0.0 mm 0.00 in0.0 mm 0.01 in0.3 mm
06:30 PM 37.6°F3.1°C 31.0°F-0.6°C 77% 2.0 mph WSW3.2 kmh WSW 3.4 mph5.5 kmh 30.39 in1029.1 mb 0.00 in0.0 mm 0.00 in0.0 mm 0.01 in0.3 mm
06:40 PM 37.2°F2.9°C 30.7°F-0.7°C 77% 0.9 mph SW1.4 kmh SW 1.7 mph2.7 kmh 30.40 in1029.5 mb 0.00 in0.0 mm 0.00 in0.0 mm 0.01 in0.3 mm
06:50 PM 36.9°F2.7°C 30.3°F-0.9°C 77% 1.6 mph SW2.6 kmh SW 2.5 mph4.0 kmh 30.41 in1029.8 mb 0.00 in0.0 mm 0.00 in0.0 mm 0.01 in0.3 mm
07:00 PM 36.7°F2.6°C 30.1°F-1.1°C 77% 1.8 mph WSW2.9 kmh WSW 2.5 mph4.0 kmh 30.41 in1029.8 mb 0.00 in0.0 mm 0.00 in0.0 mm 0.01 in0.3 mm
07:10 PM 36.5°F2.5°C 30.3°F-0.9°C 78% 1.3 mph SW2.1 kmh SW 1.7 mph2.7 kmh 30.42 in1030.1 mb 0.00 in0.0 mm 0.00 in0.0 mm 0.01 in0.3 mm
07:20 PM 36.1°F2.3°C 29.9°F-1.2°C 78% 0.6 mph WSW1.0 kmh WSW 2.5 mph4.0 kmh 30.42 in1030.1 mb 0.00 in0.0 mm 0.00 in0.0 mm 0.01 in0.3 mm
07:30 PM 36.0°F2.2°C 30.1°F-1.1°C 79% 1.4 mph NW2.3 kmh NW 2.5 mph4.0 kmh 30.42 in1030.1 mb 0.00 in0.0 mm 0.00 in0.0 mm 0.01 in0.3 mm
07:40 PM 35.8°F2.1°C 29.9°F-1.2°C 79% 0.4 mph S0.6 kmh S 1.7 mph2.7 kmh 30.43 in1030.5 mb 0.00 in0.0 mm 0.00 in0.0 mm 0.01 in0.3 mm
07:50 PM 35.6°F2.0°C 29.7°F-1.3°C 79% 0.3 mph SW0.5 kmh SW 0.7 mph1.1 kmh 30.43 in1030.5 mb 0.00 in0.0 mm 0.00 in0.0 mm 0.01 in0.3 mm
08:00 PM 35.6°F2.0°C 30.0°F-1.1°C 80% 0.8 mph SSW1.3 kmh SSW 2.5 mph4.0 kmh 30.43 in1030.5 mb 0.00 in0.0 mm 0.00 in0.0 mm 0.01 in0.3 mm
08:10 PM 35.8°F2.1°C 30.2°F-1.0°C 80% 0.8 mph WSW1.3 kmh WSW 1.7 mph2.7 kmh 30.44 in1030.8 mb 0.00 in0.0 mm 0.00 in0.0 mm 0.01 in0.3 mm
08:20 PM 36.0°F2.2°C 30.4°F-0.9°C 80% 0.7 mph SSW1.1 kmh SSW 2.5 mph4.0 kmh 30.45 in1031.2 mb 0.00 in0.0 mm 0.00 in0.0 mm 0.01 in0.3 mm
08:30 PM 36.1°F2.3°C 30.6°F-0.8°C 80% 0.6 mph SW1.0 kmh SW 2.5 mph4.0 kmh 30.45 in1031.2 mb 0.00 in0.0 mm 0.00 in0.0 mm 0.01 in0.3 mm
08:40 PM 36.1°F2.3°C 30.6°F-0.8°C 80% 0.7 mph WSW1.1 kmh WSW 2.5 mph4.0 kmh 30.46 in1031.5 mb 0.00 in0.0 mm 0.00 in0.0 mm 0.01 in0.3 mm
08:50 PM 36.1°F2.3°C 30.6°F-0.8°C 80% 0.4 mph S0.6 kmh S 2.5 mph4.0 kmh 30.46 in1031.5 mb 0.00 in0.0 mm 0.00 in0.0 mm 0.01 in0.3 mm
09:00 PM 36.0°F2.2°C 30.4°F-0.9°C 80% 1.0 mph SW1.6 kmh SW 1.7 mph2.7 kmh 30.46 in1031.5 mb 0.00 in0.0 mm 0.00 in0.0 mm 0.01 in0.3 mm
09:10 PM 35.8°F2.1°C 30.2°F-1.0°C 80% 1.0 mph S1.6 kmh S 1.7 mph2.7 kmh 30.46 in1031.5 mb 0.00 in0.0 mm 0.00 in0.0 mm 0.01 in0.3 mm
09:20 PM 35.6°F2.0°C 30.0°F-1.1°C 80% 0.3 mph WSW0.5 kmh WSW 2.5 mph4.0 kmh 30.46 in1031.5 mb 0.00 in0.0 mm 0.00 in0.0 mm 0.01 in0.3 mm
09:30 PM 35.6°F2.0°C 30.0°F-1.1°C 80% 0.9 mph NW1.4 kmh NW 3.4 mph5.5 kmh 30.47 in1031.8 mb 0.00 in0.0 mm 0.00 in0.0 mm 0.01 in0.3 mm
09:40 PM 35.4°F1.9°C 29.9°F-1.2°C 80% 1.1 mph SW1.8 kmh SW 2.5 mph4.0 kmh 30.47 in1031.8 mb 0.00 in0.0 mm 0.00 in0.0 mm 0.01 in0.3 mm
09:50 PM 35.2°F1.8°C 29.7°F-1.3°C 80% 0.2 mph SSW0.3 kmh SSW 2.5 mph4.0 kmh 30.48 in1032.2 mb 0.00 in0.0 mm 0.00 in0.0 mm 0.01 in0.3 mm
10:00 PM 35.1°F1.7°C 29.5°F-1.4°C 80% 0.3 mph WNW0.5 kmh WNW 1.7 mph2.7 kmh 30.48 in1032.2 mb 0.00 in0.0 mm 0.00 in0.0 mm 0.01 in0.3 mm
10:10 PM 34.9°F1.6°C 29.3°F-1.5°C 80% 0.1 mph WSW0.2 kmh WSW 1.7 mph2.7 kmh 30.48 in1032.2 mb 0.00 in0.0 mm 0.00 in0.0 mm 0.01 in0.3 mm
10:20 PM 34.7°F1.5°C 29.2°F-1.6°C 80% 0.3 mph SW0.5 kmh SW 1.7 mph2.7 kmh 30.49 in1032.5 mb 0.00 in0.0 mm 0.00 in0.0 mm 0.01 in0.3 mm
10:30 PM 34.3°F1.3°C 28.8°F-1.8°C 80% 0.4 mph W0.6 kmh W 1.7 mph2.7 kmh 30.49 in1032.5 mb 0.00 in0.0 mm 0.00 in0.0 mm 0.01 in0.3 mm
10:40 PM 34.3°F1.3°C 28.8°F-1.8°C 80% 0.7 mph SW1.1 kmh SW 1.7 mph2.7 kmh 30.49 in1032.5 mb 0.00 in0.0 mm 0.00 in0.0 mm 0.01 in0.3 mm
10:50 PM 34.2°F1.2°C 28.6°F-1.9°C 80% Calm Calm 1.7 mph2.7 kmh 30.50 in1032.8 mb 0.00 in0.0 mm 0.00 in0.0 mm 0.01 in0.3 mm
11:00 PM 34.2°F1.2°C 28.6°F-1.9°C 80% 0.6 mph SW1.0 kmh SW 2.5 mph4.0 kmh 30.51 in1033.2 mb 0.00 in0.0 mm 0.00 in0.0 mm 0.01 in0.3 mm
11:10 PM 34.2°F1.2°C 28.6°F-1.9°C 80% Calm Calm 0.7 mph1.1 kmh 30.51 in1033.2 mb 0.00 in0.0 mm 0.00 in0.0 mm 0.01 in0.3 mm
11:20 PM 34.0°F1.1°C 28.5°F-1.9°C 80% 0.6 mph WSW1.0 kmh WSW 2.5 mph4.0 kmh 30.52 in1033.5 mb 0.00 in0.0 mm 0.00 in0.0 mm 0.01 in0.3 mm
11:30 PM 34.0°F1.1°C 28.5°F-1.9°C 80% 0.2 mph NW0.3 kmh NW 1.7 mph2.7 kmh 30.52 in1033.5 mb 0.00 in0.0 mm 0.00 in0.0 mm 0.01 in0.3 mm
11:40 PM 34.2°F1.2°C 28.6°F-1.9°C 80% 0.7 mph NE1.1 kmh NE 4.2 mph6.8 kmh 30.53 in1033.9 mb 0.00 in0.0 mm 0.00 in0.0 mm 0.01 in0.3 mm
11:50 PM 34.5°F1.4°C 29.3°F-1.5°C 81% 1.7 mph E2.7 kmh E 4.2 mph6.8 kmh 30.54 in1034.2 mb 0.00 in0.0 mm 0.00 in0.0 mm 0.01 in0.3 mm